Palermo / Punta Raisi Airport LICJ

Flugplatz Daten

Name: Palermo / Punta Raisi Airport

Ident: LICJ

Lat: 38,17599869

Long: 13,0909996

Platzhöhe: 65 ft

IataCode: PMO

City: Palermo

Metar

2021/12/04 00:20
LICJ 040020Z 32015KT 9999 FEW035 15/09 Q1011

Taf

2021/12/03 00:00
TAF LICJ 032300Z 0400/0424 33020KT 9999 SCT030
TEMPO 0400/0406 4000 TSRA
BECMG 0418/0420 20018KT
Gewünschte Webcam nicht vorhanden? Dann fügen Sie eine hinzu. Sie wird dann so schnell wie möglich freigeschaltet
Url: Title: